createdAt,value
2022-12-07T00:00:45.792Z,1.30
2022-12-07T00:05:49.520Z,1.10
2022-12-07T00:10:52.564Z,1.10
2022-12-07T00:15:55.584Z,1.10
2022-12-07T00:21:08.242Z,1.20
2022-12-07T00:26:17.342Z,1.10
2022-12-07T00:31:23.045Z,1.00
2022-12-07T00:36:27.588Z,1.20
2022-12-07T00:41:31.573Z,1.00
2022-12-07T00:46:34.654Z,1.30
2022-12-07T00:51:38.013Z,1.00
2022-12-07T00:56:41.034Z,1.00
2022-12-07T01:01:44.224Z,1.00
2022-12-07T01:06:47.403Z,1.10
2022-12-07T01:11:50.463Z,1.00
2022-12-07T01:16:53.579Z,1.10
2022-12-07T01:21:56.610Z,1.00
2022-12-07T01:26:59.617Z,0.90
2022-12-07T01:32:02.640Z,0.90
2022-12-07T01:37:05.739Z,0.70
2022-12-07T01:42:12.093Z,0.70
2022-12-07T01:47:15.116Z,0.60
2022-12-07T01:52:24.253Z,0.60
2022-12-07T01:57:27.712Z,0.60
2022-12-07T02:02:37.806Z,0.60
2022-12-07T02:07:41.759Z,0.60
2022-12-07T02:12:47.847Z,0.40
2022-12-07T02:18:05.373Z,0.50
2022-12-07T02:23:17.639Z,0.60
2022-12-07T02:28:56.838Z,0.60
2022-12-07T02:34:16.093Z,0.60
2022-12-07T02:39:54.012Z,0.50
2022-12-07T02:44:57.193Z,0.40
2022-12-07T02:50:00.778Z,0.30
2022-12-07T02:55:05.125Z,0.40
2022-12-07T03:00:16.456Z,0.30
2022-12-07T03:05:42.452Z,0.20
2022-12-07T03:11:10.899Z,0.10
2022-12-07T03:16:34.757Z,0.10
2022-12-07T03:21:43.499Z,0.20
2022-12-07T03:26:51.031Z,0.20
2022-12-07T03:32:07.865Z,0.20
2022-12-07T03:37:27.569Z,0.10
2022-12-07T03:42:32.235Z,0.10
2022-12-07T03:47:57.483Z,0.10
2022-12-07T03:53:14.666Z,0.10
2022-12-07T03:58:23.383Z,0.10
2022-12-07T04:03:26.464Z,0.00
2022-12-07T04:08:29.677Z,0.00
2022-12-07T04:13:53.505Z,-0.10
2022-12-07T04:18:56.714Z,0.00
2022-12-07T04:23:59.836Z,0.00
2022-12-07T04:29:07.461Z,0.10
2022-12-07T04:34:12.070Z,0.10
2022-12-07T04:39:27.082Z,0.20
2022-12-07T04:44:30.835Z,0.00
2022-12-07T04:49:34.148Z,-0.20
2022-12-07T04:54:37.318Z,-0.20
2022-12-07T04:59:45.368Z,-0.20
2022-12-07T05:04:49.052Z,-0.20
2022-12-07T05:09:54.996Z,-0.10
2022-12-07T05:14:58.158Z,-0.10
2022-12-07T05:20:01.614Z,0.00
2022-12-07T05:25:05.420Z,0.10
2022-12-07T05:30:09.236Z,0.20
2022-12-07T05:35:12.431Z,0.20
2022-12-07T05:40:16.248Z,0.30
2022-12-07T05:45:19.394Z,0.30
2022-12-07T05:50:22.625Z,0.30
2022-12-07T05:55:36.829Z,0.30
2022-12-07T06:00:39.970Z,0.30
2022-12-07T06:05:43.625Z,0.30
2022-12-07T06:10:48.008Z,0.40
2022-12-07T06:15:51.196Z,0.40
2022-12-07T06:20:54.292Z,0.40
2022-12-07T06:25:57.441Z,0.50
2022-12-07T06:31:01.566Z,0.50
2022-12-07T06:36:05.160Z,0.50
2022-12-07T06:41:08.420Z,0.50
2022-12-07T06:46:11.737Z,0.60
2022-12-07T06:51:14.953Z,0.60
2022-12-07T06:56:18.192Z,0.60
2022-12-07T07:01:21.324Z,0.60
2022-12-07T07:06:24.428Z,0.80
2022-12-07T07:11:27.663Z,0.70
2022-12-07T07:16:32.314Z,0.80
2022-12-07T07:21:35.659Z,0.90
2022-12-07T07:26:38.769Z,0.90
2022-12-07T07:31:41.856Z,0.90
2022-12-07T07:36:44.878Z,0.90
2022-12-07T07:41:48.533Z,1.00
2022-12-07T07:47:00.873Z,1.00
2022-12-07T07:52:04.152Z,1.10
2022-12-07T07:57:07.164Z,1.00
2022-12-07T08:02:19.893Z,1.10
2022-12-07T08:07:22.974Z,1.10
2022-12-07T08:12:26.142Z,1.20
2022-12-07T08:17:29.190Z,1.20
2022-12-07T08:22:32.109Z,1.20
2022-12-07T08:27:35.228Z,1.30
2022-12-07T08:32:38.377Z,1.10
2022-12-07T08:37:42.009Z,1.30
2022-12-07T08:42:45.978Z,1.30
2022-12-07T08:48:25.611Z,1.30
2022-12-07T08:53:29.121Z,1.40
2022-12-07T08:58:32.997Z,1.30
2022-12-07T09:03:36.139Z,1.50
2022-12-07T09:08:43.567Z,1.50
2022-12-07T09:13:46.655Z,1.60
2022-12-07T09:18:49.722Z,1.60
2022-12-07T09:23:52.785Z,1.70
2022-12-07T09:28:56.000Z,1.90
2022-12-07T09:34:02.415Z,2.00
2022-12-07T09:39:06.204Z,2.10
2022-12-07T09:44:18.515Z,2.10
2022-12-07T09:49:28.144Z,2.10
2022-12-07T09:54:32.838Z,2.10
2022-12-07T09:59:36.827Z,2.10
2022-12-07T10:04:40.264Z,2.30
2022-12-07T10:09:44.357Z,2.30
2022-12-07T10:15:18.718Z,2.40
2022-12-07T10:20:28.951Z,2.40
2022-12-07T10:25:34.927Z,2.40
2022-12-07T10:31:00.536Z,2.40
2022-12-07T10:36:18.740Z,2.50
2022-12-07T10:41:21.927Z,2.50
2022-12-07T10:46:36.200Z,2.60
2022-12-07T10:51:49.702Z,2.60
2022-12-07T10:57:29.133Z,2.60
2022-12-07T11:02:51.979Z,2.80
2022-12-07T11:08:05.476Z,2.90
2022-12-07T11:13:17.770Z,2.80
2022-12-07T11:18:29.154Z,3.00
2022-12-07T11:23:53.821Z,2.90
2022-12-07T11:29:09.096Z,2.90
2022-12-07T11:34:27.735Z,2.90
2022-12-07T11:39:49.459Z,2.90
2022-12-07T11:45:02.470Z,2.90
2022-12-07T11:50:31.141Z,2.90
2022-12-07T11:55:58.565Z,3.00
2022-12-07T12:01:23.716Z,3.00
2022-12-07T12:06:26.906Z,3.00
2022-12-07T12:11:45.891Z,3.00
2022-12-07T12:17:15.059Z,3.10
2022-12-07T12:22:22.418Z,3.20
2022-12-07T12:27:38.570Z,3.10
2022-12-07T12:32:44.146Z,3.10
2022-12-07T12:37:48.296Z,3.00
2022-12-07T12:42:59.204Z,3.00
2022-12-07T12:48:04.260Z,3.00
2022-12-07T12:53:27.060Z,3.10
2022-12-07T12:58:39.431Z,3.10
2022-12-07T13:03:55.086Z,3.20
2022-12-07T13:10:18.579Z,3.20
2022-12-07T13:15:40.447Z,3.20
2022-12-07T13:20:48.589Z,3.20
2022-12-07T13:26:01.148Z,3.20
2022-12-07T13:31:36.484Z,3.20
2022-12-07T13:36:41.011Z,3.30
2022-12-07T13:41:44.923Z,3.20
2022-12-07T13:47:00.796Z,3.20
2022-12-07T13:52:30.738Z,3.20
2022-12-07T13:57:36.423Z,3.30
2022-12-07T14:03:01.087Z,3.40
2022-12-07T14:08:31.256Z,3.40
2022-12-07T14:13:36.199Z,3.30
2022-12-07T14:18:41.835Z,3.20
2022-12-07T14:23:45.754Z,3.20
2022-12-07T14:28:49.292Z,3.30
2022-12-07T14:33:52.337Z,3.30
2022-12-07T14:38:57.436Z,3.20
2022-12-07T14:44:22.413Z,3.20
2022-12-07T14:49:39.612Z,3.00
2022-12-07T14:54:44.111Z,3.00
2022-12-07T14:59:47.174Z,2.90
2022-12-07T15:04:50.457Z,2.90
2022-12-07T15:09:53.525Z,2.80
2022-12-07T15:14:56.849Z,2.90
2022-12-07T15:20:00.220Z,2.80
2022-12-07T15:25:05.502Z,2.60
2022-12-07T15:30:09.686Z,2.70
2022-12-07T15:35:12.720Z,2.50
2022-12-07T15:40:15.953Z,2.50
2022-12-07T15:45:19.093Z,2.60
2022-12-07T15:50:22.513Z,2.60
2022-12-07T15:55:25.550Z,2.60
2022-12-07T16:00:28.719Z,2.40
2022-12-07T16:05:31.814Z,2.40
2022-12-07T16:10:35.755Z,2.40
2022-12-07T16:15:43.133Z,2.30
2022-12-07T16:20:50.397Z,2.30
2022-12-07T16:25:53.585Z,2.40
2022-12-07T16:31:08.322Z,2.30
2022-12-07T16:36:14.572Z,2.30
2022-12-07T16:41:17.685Z,2.40
2022-12-07T16:46:20.917Z,2.20
2022-12-07T16:51:23.958Z,2.20
2022-12-07T16:56:28.011Z,2.30
2022-12-07T17:01:32.052Z,2.20
2022-12-07T17:06:35.229Z,2.10
2022-12-07T17:11:38.325Z,2.20
2022-12-07T17:16:41.711Z,2.10
2022-12-07T17:21:45.796Z,2.00
2022-12-07T17:26:49.022Z,2.10
2022-12-07T17:31:52.329Z,2.00
2022-12-07T17:36:56.021Z,2.10
2022-12-07T17:42:17.322Z,2.00
2022-12-07T17:47:21.797Z,2.10
2022-12-07T17:52:43.054Z,2.20
2022-12-07T17:57:46.059Z,1.90
2022-12-07T18:02:49.339Z,1.90
2022-12-07T18:07:53.249Z,1.90
2022-12-07T18:13:16.456Z,2.00
2022-12-07T18:18:19.437Z,2.00
2022-12-07T18:23:22.533Z,2.00
2022-12-07T18:28:25.622Z,2.00
2022-12-07T18:33:28.732Z,2.00
2022-12-07T18:38:32.369Z,2.20
2022-12-07T18:43:35.423Z,2.00
2022-12-07T18:48:38.603Z,2.20
2022-12-07T18:53:41.849Z,2.20
2022-12-07T18:59:07.729Z,2.10
2022-12-07T19:04:11.353Z,2.10
2022-12-07T19:09:15.112Z,2.20
2022-12-07T19:14:20.292Z,2.20
2022-12-07T19:19:25.504Z,2.00
2022-12-07T19:24:29.768Z,2.00
2022-12-07T19:29:32.868Z,2.00
2022-12-07T19:34:37.073Z,2.00
2022-12-07T19:39:48.320Z,2.20
2022-12-07T19:44:51.508Z,2.20
2022-12-07T19:49:54.561Z,2.20
2022-12-07T19:54:57.706Z,2.10
2022-12-07T20:00:00.769Z,2.20
2022-12-07T20:05:06.323Z,2.10
2022-12-07T20:10:14.028Z,2.20
2022-12-07T20:15:17.413Z,2.00
2022-12-07T20:20:20.612Z,2.10
2022-12-07T20:25:23.717Z,2.00
2022-12-07T20:30:26.822Z,2.10
2022-12-07T20:35:30.645Z,2.00
2022-12-07T20:40:33.638Z,2.10
2022-12-07T20:45:36.716Z,2.20
2022-12-07T20:50:42.334Z,2.10
2022-12-07T20:55:46.039Z,2.10
2022-12-07T21:00:49.102Z,2.30
2022-12-07T21:05:52.103Z,2.30
2022-12-07T21:10:55.151Z,2.20
2022-12-07T21:15:59.684Z,2.30
2022-12-07T21:21:03.441Z,2.30
2022-12-07T21:26:11.707Z,2.30
2022-12-07T21:31:15.407Z,2.30
2022-12-07T21:36:21.518Z,2.30
2022-12-07T21:41:27.796Z,2.10
2022-12-07T21:46:34.186Z,2.10
2022-12-07T21:51:38.333Z,2.00
2022-12-07T21:56:43.056Z,2.10
2022-12-07T22:01:48.579Z,2.00
2022-12-07T22:06:53.180Z,1.90
2022-12-07T22:11:56.270Z,1.90
2022-12-07T22:16:59.457Z,2.00
2022-12-07T22:22:02.555Z,2.00
2022-12-07T22:27:05.567Z,1.90
2022-12-07T22:32:24.993Z,2.00
2022-12-07T22:37:32.584Z,1.80
2022-12-07T22:42:35.622Z,1.80
2022-12-07T22:47:40.814Z,1.70
2022-12-07T22:52:43.832Z,1.90
2022-12-07T22:57:46.852Z,1.90
2022-12-07T23:02:49.910Z,1.80
2022-12-07T23:07:53.319Z,1.80
2022-12-07T23:13:14.806Z,1.90
2022-12-07T23:18:20.994Z,1.90
2022-12-07T23:23:24.019Z,2.10
2022-12-07T23:28:27.089Z,2.00
2022-12-07T23:33:30.289Z,1.90
2022-12-07T23:38:33.307Z,2.00
2022-12-07T23:43:41.197Z,1.90
2022-12-07T23:48:45.262Z,2.10
2022-12-07T23:53:50.697Z,2.00
2022-12-07T23:58:54.797Z,1.90
